createdAt,value
2023-04-05T00:02:18.852Z,0.40
2023-04-05T00:04:50.756Z,0.40
2023-04-05T00:07:19.332Z,0.40
2023-04-05T00:09:46.663Z,0.40
2023-04-05T00:12:13.912Z,0.40
2023-04-05T00:14:41.235Z,0.40
2023-04-05T00:17:10.172Z,0.40
2023-04-05T00:19:39.405Z,0.40
2023-04-05T00:22:10.604Z,0.40
2023-04-05T00:24:42.078Z,0.40
2023-04-05T00:27:09.371Z,0.40
2023-04-05T00:29:36.489Z,0.40
2023-04-05T00:32:04.792Z,0.30
2023-04-05T00:34:33.744Z,0.30
2023-04-05T00:37:01.136Z,0.30
2023-04-05T00:39:28.609Z,0.40
2023-04-05T00:41:56.279Z,0.40
2023-04-05T00:44:23.310Z,0.40
2023-04-05T00:46:51.161Z,0.40
2023-04-05T00:49:18.311Z,0.50
2023-04-05T00:51:45.959Z,0.50
2023-04-05T00:54:14.148Z,0.50
2023-04-05T00:56:41.592Z,0.40
2023-04-05T00:59:08.902Z,0.40
2023-04-05T01:01:40.421Z,0.40
2023-04-05T01:04:08.937Z,0.50
2023-04-05T01:06:41.754Z,0.40
2023-04-05T01:09:33.879Z,0.40
2023-04-05T01:12:06.086Z,0.40
2023-04-05T01:14:34.404Z,0.40
2023-04-05T01:17:03.325Z,0.40
2023-04-05T01:19:30.787Z,0.40
2023-04-05T01:22:26.478Z,0.40
2023-04-05T01:25:19.683Z,0.40
2023-04-05T01:27:59.136Z,0.40
2023-04-05T01:30:54.378Z,0.40
2023-04-05T01:33:32.694Z,0.40
2023-04-05T01:36:27.374Z,0.40
2023-04-05T01:38:56.101Z,0.40
2023-04-05T01:41:23.667Z,0.40
2023-04-05T01:43:50.723Z,0.40
2023-04-05T01:46:17.753Z,0.40
2023-04-05T01:48:44.731Z,0.40
2023-04-05T01:51:11.721Z,0.40
2023-04-05T01:53:38.682Z,0.40
2023-04-05T01:56:05.808Z,0.40
2023-04-05T01:58:32.893Z,0.40
2023-04-05T02:00:59.807Z,0.40
2023-04-05T02:03:27.020Z,0.30
2023-04-05T02:05:54.041Z,0.40
2023-04-05T02:08:21.062Z,0.40
2023-04-05T02:10:48.014Z,0.40
2023-04-05T02:13:15.049Z,0.30
2023-04-05T02:15:47.390Z,0.40
2023-04-05T02:18:14.324Z,0.40
2023-04-05T02:20:41.544Z,0.40
2023-04-05T02:23:08.888Z,0.40
2023-04-05T02:25:35.825Z,0.40
2023-04-05T02:28:02.804Z,0.40
2023-04-05T02:30:29.811Z,0.40
2023-04-05T02:32:57.395Z,0.40
2023-04-05T02:35:24.431Z,0.40
2023-04-05T02:37:51.517Z,0.40
2023-04-05T02:40:18.516Z,0.40
2023-04-05T02:42:45.460Z,0.40
2023-04-05T02:45:12.434Z,0.40
2023-04-05T02:47:39.420Z,0.40
2023-04-05T02:50:07.032Z,0.40
2023-04-05T02:52:34.431Z,0.40
2023-04-05T02:55:01.354Z,0.40
2023-04-05T02:57:28.453Z,0.40
2023-04-05T02:59:55.642Z,0.40
2023-04-05T03:02:22.564Z,0.40
2023-04-05T03:04:52.421Z,0.40
2023-04-05T03:07:19.321Z,0.40
2023-04-05T03:09:46.610Z,0.40
2023-04-05T03:12:14.076Z,0.40
2023-04-05T03:14:41.471Z,0.40
2023-04-05T03:17:08.466Z,0.40
2023-04-05T03:19:35.788Z,0.40
2023-04-05T03:22:02.734Z,0.30
2023-04-05T03:24:29.747Z,0.40
2023-04-05T03:26:56.825Z,0.40
2023-04-05T03:29:23.724Z,0.40
2023-04-05T03:31:51.167Z,0.40
2023-04-05T03:34:18.203Z,0.40
2023-04-05T03:36:46.048Z,0.40
2023-04-05T03:39:13.584Z,0.40
2023-04-05T03:41:41.325Z,0.40
2023-04-05T03:44:09.172Z,0.40
2023-04-05T03:46:47.718Z,0.40
2023-04-05T03:49:16.457Z,0.50
2023-04-05T03:51:43.458Z,0.50
2023-04-05T03:54:10.446Z,0.50
2023-04-05T03:56:37.472Z,0.50
2023-04-05T03:59:04.840Z,0.50
2023-04-05T04:01:32.293Z,0.50
2023-04-05T04:04:00.553Z,0.50
2023-04-05T04:06:27.659Z,0.50
2023-04-05T04:08:54.621Z,0.50
2023-04-05T04:11:21.783Z,0.50
2023-04-05T04:13:48.760Z,0.50
2023-04-05T04:16:16.279Z,0.50
2023-04-05T04:18:43.317Z,0.60
2023-04-05T04:21:10.844Z,0.60
2023-04-05T04:23:40.650Z,0.60
2023-04-05T04:26:07.807Z,0.60
2023-04-05T04:28:34.953Z,0.60
2023-04-05T04:31:05.194Z,0.70
2023-04-05T04:33:34.768Z,0.70
2023-04-05T04:36:07.407Z,0.70
2023-04-05T04:38:35.125Z,0.70
2023-04-05T04:41:07.438Z,0.80
2023-04-05T04:43:38.671Z,0.80
2023-04-05T04:46:11.066Z,0.80
2023-04-05T04:48:42.443Z,0.90
2023-04-05T04:51:09.681Z,0.90
2023-04-05T04:53:36.840Z,0.90
2023-04-05T04:56:07.927Z,1.00
2023-04-05T04:58:43.642Z,1.00
2023-04-05T05:01:10.764Z,1.00
2023-04-05T05:03:41.367Z,1.00
2023-04-05T05:06:08.845Z,1.00
2023-04-05T05:08:37.452Z,1.10
2023-04-05T05:11:07.979Z,1.10
2023-04-05T05:13:35.189Z,1.10
2023-04-05T05:16:04.706Z,1.10
2023-04-05T05:18:31.851Z,1.20
2023-04-05T05:20:58.883Z,1.20
2023-04-05T05:23:25.899Z,1.20
2023-04-05T05:25:59.540Z,1.30
2023-04-05T05:28:29.273Z,1.30
2023-04-05T05:30:56.584Z,1.40
2023-04-05T05:33:23.617Z,1.40
2023-04-05T05:35:51.735Z,1.40
2023-04-05T05:38:19.234Z,1.40
2023-04-05T05:40:46.206Z,1.50
2023-04-05T05:43:13.371Z,1.50
2023-04-05T05:45:40.556Z,1.50
2023-04-05T05:48:07.641Z,1.60
2023-04-05T05:50:34.635Z,1.70
2023-04-05T05:53:01.895Z,1.80
2023-04-05T05:55:28.936Z,1.80
2023-04-05T05:57:55.982Z,1.80
2023-04-05T06:00:23.189Z,1.80
2023-04-05T06:02:50.751Z,2.00
2023-04-05T06:05:17.786Z,2.00
2023-04-05T06:07:44.816Z,2.20
2023-04-05T06:10:13.331Z,2.40
2023-04-05T06:12:40.931Z,2.60
2023-04-05T06:15:08.579Z,2.80
2023-04-05T06:17:42.053Z,3.00
2023-04-05T06:20:11.897Z,3.20
2023-04-05T06:22:41.776Z,3.20
2023-04-05T06:25:09.716Z,3.00
2023-04-05T06:27:36.651Z,2.90
2023-04-05T06:30:04.448Z,2.70
2023-04-05T06:32:31.444Z,2.80
2023-04-05T06:34:58.442Z,3.00
2023-04-05T06:37:25.631Z,3.40
2023-04-05T06:39:52.549Z,3.80
2023-04-05T06:42:19.503Z,4.10
2023-04-05T06:44:46.546Z,4.40
2023-04-05T06:47:13.878Z,4.40
2023-04-05T06:49:40.933Z,4.40
2023-04-05T06:52:08.854Z,4.20
2023-04-05T06:54:38.996Z,4.10
2023-04-05T06:57:05.985Z,4.20
2023-04-05T06:59:33.265Z,4.50
2023-04-05T07:02:00.475Z,5.00
2023-04-05T07:04:29.341Z,5.50
2023-04-05T07:06:56.843Z,5.70
2023-04-05T07:09:25.492Z,5.50
2023-04-05T07:11:52.463Z,5.20
2023-04-05T07:14:19.391Z,4.80
2023-04-05T07:19:23.224Z,4.00
2023-04-05T07:22:12.236Z,3.70
2023-04-05T07:24:39.322Z,3.60
2023-04-05T07:27:08.966Z,3.40
2023-04-05T07:29:44.571Z,3.20
2023-04-05T07:32:12.841Z,3.10
2023-04-05T07:34:41.780Z,3.00
2023-04-05T07:37:08.777Z,3.00
2023-04-05T07:39:35.982Z,3.00
2023-04-05T07:42:06.223Z,3.00
2023-04-05T07:44:33.185Z,3.00
2023-04-05T07:47:00.195Z,3.00
2023-04-05T07:49:27.861Z,3.10
2023-04-05T07:51:56.541Z,3.20
2023-04-05T07:54:24.054Z,3.20
2023-04-05T07:56:52.228Z,3.30
2023-04-05T07:59:19.270Z,3.30
2023-04-05T08:01:49.495Z,3.40
2023-04-05T08:04:16.465Z,3.70
2023-04-05T08:06:44.066Z,4.20
2023-04-05T08:09:11.260Z,4.40
2023-04-05T08:11:38.499Z,4.40
2023-04-05T08:14:05.860Z,4.40
2023-04-05T08:16:33.849Z,4.40
2023-04-05T08:19:01.194Z,4.30
2023-04-05T08:21:28.196Z,4.20
2023-04-05T08:23:55.358Z,4.10
2023-04-05T08:26:22.818Z,4.20
2023-04-05T08:29:01.886Z,4.20
2023-04-05T08:31:29.474Z,4.20
2023-04-05T08:33:56.611Z,4.10
2023-04-05T08:36:23.557Z,4.20
2023-04-05T08:38:50.560Z,4.20
2023-04-05T08:41:19.533Z,4.30
2023-04-05T08:44:03.171Z,4.50
2023-04-05T08:46:32.500Z,4.60
2023-04-05T08:48:59.830Z,4.80
2023-04-05T08:51:27.654Z,4.80
2023-04-05T08:53:55.127Z,4.80
2023-04-05T08:56:29.687Z,4.70
2023-04-05T08:59:06.681Z,4.60
2023-04-05T09:01:36.955Z,4.40
2023-04-05T09:04:09.960Z,4.30
2023-04-05T09:06:37.346Z,4.30
2023-04-05T09:09:07.569Z,4.20
2023-04-05T09:11:36.098Z,4.20
2023-04-05T09:14:05.118Z,4.10
2023-04-05T09:16:36.962Z,4.00
2023-04-05T09:19:04.215Z,4.00
2023-04-05T09:21:51.259Z,4.00
2023-04-05T09:24:41.845Z,4.20
2023-04-05T09:27:13.922Z,4.50
2023-04-05T09:29:48.113Z,4.80
2023-04-05T09:32:16.543Z,5.10
2023-04-05T09:34:44.314Z,5.20
2023-04-05T09:37:19.844Z,5.10
2023-04-05T09:39:52.092Z,5.20
2023-04-05T09:42:23.212Z,5.30
2023-04-05T09:45:02.815Z,5.30
2023-04-05T09:47:32.851Z,5.30
2023-04-05T09:50:01.046Z,5.20
2023-04-05T09:52:32.116Z,5.10
2023-04-05T09:55:01.834Z,5.20
2023-04-05T09:57:32.743Z,5.30
2023-04-05T09:59:59.608Z,5.50
2023-04-05T10:02:39.583Z,5.70
2023-04-05T10:05:08.119Z,5.90
2023-04-05T10:07:35.869Z,6.00
2023-04-05T10:10:03.514Z,5.90
2023-04-05T10:12:33.035Z,5.90
2023-04-05T10:15:00.440Z,5.80
2023-04-05T10:17:49.880Z,5.90
2023-04-05T10:20:19.612Z,5.90
2023-04-05T10:22:52.040Z,6.00
2023-04-05T10:25:24.530Z,6.10
2023-04-05T10:27:57.013Z,6.20
2023-04-05T10:30:34.931Z,6.20
2023-04-05T10:33:12.541Z,6.30
2023-04-05T10:36:04.771Z,6.50
2023-04-05T10:38:54.308Z,6.80
2023-04-05T10:41:21.301Z,6.90
2023-04-05T10:43:51.979Z,6.80
2023-04-05T10:46:22.633Z,6.60
2023-04-05T10:48:58.867Z,6.30
2023-04-05T10:51:29.840Z,6.00
2023-04-05T10:53:57.075Z,6.00
2023-04-05T10:56:25.126Z,6.00
2023-04-05T10:58:53.187Z,6.20
2023-04-05T11:01:21.633Z,6.40
2023-04-05T11:03:50.649Z,6.50
2023-04-05T11:06:29.905Z,6.50
2023-04-05T11:09:10.254Z,6.40
2023-04-05T11:11:47.683Z,6.70
2023-04-05T11:14:23.590Z,7.00
2023-04-05T11:16:59.909Z,6.90
2023-04-05T11:19:47.964Z,6.70
2023-04-05T11:22:28.918Z,6.80
2023-04-05T11:24:58.579Z,6.90
2023-04-05T11:27:37.619Z,6.90
2023-04-05T11:30:06.597Z,6.90
2023-04-05T11:32:41.906Z,6.70
2023-04-05T11:35:13.855Z,6.60
2023-04-05T11:37:57.160Z,6.70
2023-04-05T11:40:29.630Z,6.90
2023-04-05T11:43:08.573Z,6.80
2023-04-05T11:45:37.582Z,6.60
2023-04-05T11:48:09.488Z,6.60
2023-04-05T11:50:38.543Z,6.80
2023-04-05T11:53:13.596Z,7.10
2023-04-05T11:55:43.325Z,7.40
2023-04-05T11:58:14.932Z,7.50
2023-04-05T12:00:42.820Z,7.50
2023-04-05T12:03:14.516Z,7.50
2023-04-05T12:05:52.557Z,7.50
2023-04-05T12:08:20.709Z,7.70
2023-04-05T12:10:57.984Z,7.70
2023-04-05T12:13:33.558Z,7.60
2023-04-05T12:16:05.146Z,7.60
2023-04-05T12:18:34.235Z,7.80
2023-04-05T12:21:08.885Z,7.90
2023-04-05T12:23:37.469Z,8.00
2023-04-05T12:26:06.752Z,8.30
2023-04-05T12:29:06.165Z,8.40
2023-04-05T12:31:43.627Z,8.50
2023-04-05T12:34:12.027Z,8.80
2023-04-05T12:36:39.796Z,8.90
2023-04-05T12:39:08.666Z,8.90
2023-04-05T12:41:37.440Z,8.80
2023-04-05T12:44:15.284Z,8.70
2023-04-05T12:46:47.584Z,8.30
2023-04-05T12:49:19.179Z,8.20
2023-04-05T12:51:47.658Z,8.00
2023-04-05T12:54:15.049Z,7.80
2023-04-05T12:56:44.773Z,7.60
2023-04-05T12:59:13.969Z,7.40
2023-04-05T13:01:43.660Z,7.20
2023-04-05T13:06:40.600Z,6.90
2023-04-05T13:09:07.588Z,6.80
2023-04-05T13:11:34.635Z,6.80
2023-04-05T13:14:01.581Z,7.00
2023-04-05T13:16:28.598Z,7.10
2023-04-05T13:18:55.622Z,7.00
2023-04-05T13:21:24.837Z,6.90
2023-04-05T13:23:51.788Z,6.90
2023-04-05T13:26:18.821Z,7.00
2023-04-05T13:28:45.772Z,7.10
2023-04-05T13:31:14.460Z,7.20
2023-04-05T13:33:42.876Z,7.10
2023-04-05T13:36:11.135Z,7.10
2023-04-05T13:38:38.303Z,7.10
2023-04-05T13:41:05.495Z,7.00
2023-04-05T13:43:32.401Z,6.90
2023-04-05T13:45:59.544Z,6.80
2023-04-05T13:48:26.588Z,6.70
2023-04-05T13:50:53.763Z,6.60
2023-04-05T13:53:20.780Z,6.50
2023-04-05T13:55:47.771Z,6.30
2023-04-05T13:58:16.656Z,6.20
2023-04-05T14:00:43.975Z,6.20
2023-04-05T14:03:11.194Z,6.10
2023-04-05T14:05:38.247Z,6.10
2023-04-05T14:08:05.306Z,6.20
2023-04-05T14:10:32.573Z,6.30
2023-04-05T14:12:59.515Z,6.40
2023-04-05T14:15:27.673Z,6.50
2023-04-05T14:17:54.799Z,6.80
2023-04-05T14:20:21.928Z,7.10
2023-04-05T14:22:48.935Z,7.40
2023-04-05T14:25:15.943Z,7.80
2023-04-05T14:27:42.993Z,8.00
2023-04-05T14:30:11.449Z,8.10
2023-04-05T14:32:38.755Z,8.10
2023-04-05T14:35:06.433Z,8.10
2023-04-05T14:37:33.416Z,8.10
2023-04-05T14:40:00.371Z,8.10
2023-04-05T14:42:37.318Z,8.10
2023-04-05T14:45:08.706Z,8.10
2023-04-05T14:47:35.904Z,8.00
2023-04-05T14:50:03.067Z,7.80
2023-04-05T14:52:30.761Z,7.50
2023-04-05T14:54:57.720Z,7.40
2023-04-05T14:57:24.750Z,7.30
2023-04-05T14:59:51.708Z,7.30
2023-04-05T15:02:19.108Z,7.20
2023-04-05T15:04:46.079Z,7.10
2023-04-05T15:07:13.315Z,7.00
2023-04-05T15:09:40.287Z,7.00
2023-04-05T15:12:07.377Z,6.80
2023-04-05T15:14:34.415Z,6.80
2023-04-05T15:17:01.502Z,6.60
2023-04-05T15:19:30.047Z,6.50
2023-04-05T15:21:57.036Z,6.40
2023-04-05T15:24:24.095Z,6.30
2023-04-05T15:26:51.281Z,6.30
2023-04-05T15:29:22.525Z,6.10
2023-04-05T15:31:49.549Z,5.90
2023-04-05T15:34:17.228Z,5.60
2023-04-05T15:36:44.198Z,5.30
2023-04-05T15:39:11.240Z,5.10
2023-04-05T15:41:38.336Z,4.90
2023-04-05T15:44:05.426Z,4.60
2023-04-05T15:46:32.413Z,4.40
2023-04-05T15:48:59.725Z,4.20
2023-04-05T15:51:27.280Z,4.00
2023-04-05T15:53:54.310Z,4.00
2023-04-05T15:56:21.384Z,4.00
2023-04-05T15:58:48.449Z,4.00
2023-04-05T16:01:15.767Z,4.00
2023-04-05T16:03:43.232Z,4.00
2023-04-05T16:06:10.491Z,4.00
2023-04-05T16:08:37.685Z,4.00
2023-04-05T16:11:04.734Z,4.00
2023-04-05T16:13:31.710Z,3.90
2023-04-05T16:15:58.758Z,3.90
2023-04-05T16:18:26.186Z,3.80
2023-04-05T16:20:53.186Z,3.80
2023-04-05T16:23:20.375Z,3.70
2023-04-05T16:25:47.389Z,3.70
2023-04-05T16:28:14.398Z,3.60
2023-04-05T16:30:42.339Z,3.70
2023-04-05T16:33:09.363Z,3.70
2023-04-05T16:35:36.833Z,3.70
2023-04-05T16:38:04.276Z,3.70
2023-04-05T16:40:32.935Z,3.60
2023-04-05T16:42:59.941Z,3.60
2023-04-05T16:45:28.786Z,3.50
2023-04-05T16:47:55.862Z,3.50
2023-04-05T16:50:22.840Z,3.50
2023-04-05T16:52:50.121Z,3.40
2023-04-05T16:55:17.158Z,3.40
2023-04-05T16:57:44.129Z,3.40
2023-04-05T17:00:12.027Z,3.30
2023-04-05T17:02:39.177Z,3.30
2023-04-05T17:05:06.790Z,3.20
2023-04-05T17:07:33.752Z,3.20
2023-04-05T17:10:03.036Z,3.10
2023-04-05T17:12:30.288Z,3.10
2023-04-05T17:14:57.322Z,3.00
2023-04-05T17:17:24.315Z,3.00
2023-04-05T17:19:52.536Z,2.90
2023-04-05T17:22:19.549Z,2.80
2023-04-05T17:24:46.897Z,2.80
2023-04-05T17:27:13.924Z,2.80
2023-04-05T17:29:40.955Z,2.70
2023-04-05T17:32:08.186Z,2.70
2023-04-05T17:34:35.190Z,2.70
2023-04-05T17:37:02.209Z,2.60
2023-04-05T17:39:29.151Z,2.50
2023-04-05T17:41:56.863Z,2.50
2023-04-05T17:44:23.839Z,2.50
2023-04-05T17:47:01.259Z,2.50
2023-04-05T17:49:36.614Z,2.50
2023-04-05T17:52:04.910Z,2.50
2023-04-05T17:54:37.074Z,2.40
2023-04-05T17:57:15.285Z,2.40
2023-04-05T17:59:42.992Z,2.40
2023-04-05T18:02:11.328Z,2.40
2023-04-05T18:04:39.618Z,2.40
2023-04-05T18:07:07.621Z,2.40
2023-04-05T18:09:36.326Z,2.40
2023-04-05T18:12:03.478Z,2.40
2023-04-05T18:14:30.727Z,2.40
2023-04-05T18:16:57.799Z,2.40
2023-04-05T18:19:24.893Z,2.40
2023-04-05T18:21:51.893Z,2.40
2023-04-05T18:24:19.657Z,2.40
2023-04-05T18:26:46.911Z,2.40
2023-04-05T20:29:48.965Z,2.40
2023-04-05T20:32:17.770Z,2.40
2023-04-05T20:34:46.169Z,2.40
2023-04-05T20:37:13.683Z,2.40
2023-04-05T20:39:40.799Z,2.40
2023-04-05T20:42:09.922Z,2.40
2023-04-05T20:44:37.340Z,2.40
2023-04-05T20:47:04.398Z,2.40
2023-04-05T20:49:31.415Z,2.40
2023-04-05T20:51:58.420Z,2.40
2023-04-05T20:54:25.439Z,2.40
2023-04-05T20:56:53.193Z,2.40
2023-04-05T20:59:20.201Z,2.40
2023-04-05T21:01:47.684Z,2.40
2023-04-05T21:04:14.975Z,2.40
2023-04-05T21:06:42.505Z,2.40
2023-04-05T21:09:10.187Z,2.40
2023-04-05T21:11:37.588Z,2.30
2023-04-05T21:14:04.724Z,2.30
2023-04-05T21:16:31.924Z,2.30
2023-04-05T21:18:59.035Z,2.30
2023-04-05T21:21:26.412Z,2.30
2023-04-05T21:23:53.458Z,2.30
2023-04-05T21:26:21.433Z,2.20
2023-04-05T21:28:48.484Z,2.20
2023-04-05T21:31:15.784Z,2.20
2023-04-05T21:33:42.901Z,2.20
2023-04-05T21:36:09.937Z,2.20
2023-04-05T21:38:36.946Z,2.10
2023-04-05T21:41:03.930Z,2.10
2023-04-05T21:43:30.958Z,2.10
2023-04-05T21:45:57.951Z,2.10
2023-04-05T21:48:25.003Z,2.10
2023-04-05T21:50:52.061Z,2.00
2023-04-05T21:53:33.228Z,2.00
2023-04-05T21:56:00.462Z,2.00
2023-04-05T21:58:27.476Z,2.00
2023-04-05T22:00:54.563Z,2.00
2023-04-05T22:03:21.680Z,2.00
2023-04-05T22:05:48.715Z,2.00
2023-04-05T22:08:15.865Z,1.90
2023-04-05T22:10:43.942Z,1.90
2023-04-05T22:13:11.044Z,1.90
2023-04-05T22:15:38.022Z,1.90
2023-04-05T22:18:05.830Z,1.90
2023-04-05T22:20:32.928Z,1.90
2023-04-05T22:22:59.965Z,1.80
2023-04-05T22:25:27.159Z,1.70
2023-04-05T22:27:59.739Z,1.70
2023-04-05T22:30:28.834Z,1.80
2023-04-05T22:32:56.294Z,1.70
2023-04-05T22:35:23.485Z,1.70
2023-04-05T22:37:50.632Z,1.70
2023-04-05T22:40:17.647Z,1.60
2023-04-05T22:42:46.524Z,1.60
2023-04-05T22:45:13.537Z,1.60
2023-04-05T22:47:40.622Z,1.60
2023-04-05T22:50:08.172Z,1.60
2023-04-05T22:52:35.509Z,1.60
2023-04-05T22:55:03.022Z,1.50
2023-04-05T22:57:31.324Z,1.60
2023-04-05T22:59:58.462Z,1.50
2023-04-05T23:02:25.629Z,1.60
2023-04-05T23:04:52.731Z,1.50
2023-04-05T23:07:19.791Z,1.50
2023-04-05T23:09:46.801Z,1.60
2023-04-05T23:12:14.286Z,1.50
2023-04-05T23:14:41.554Z,1.50
2023-04-05T23:17:08.991Z,1.50
2023-04-05T23:19:36.026Z,1.60
2023-04-05T23:22:03.039Z,1.50
2023-04-05T23:24:30.211Z,1.50
2023-04-05T23:26:57.169Z,1.50
2023-04-05T23:29:26.287Z,1.50
2023-04-05T23:31:56.250Z,1.60
2023-04-05T23:34:23.279Z,1.60
2023-04-05T23:36:50.370Z,1.50
2023-04-05T23:39:17.520Z,1.50
2023-04-05T23:41:44.470Z,1.50
2023-04-05T23:44:11.673Z,1.50
2023-04-05T23:46:38.696Z,1.60
2023-04-05T23:49:05.821Z,1.60
2023-04-05T23:51:32.903Z,1.60
2023-04-05T23:54:00.017Z,1.60
2023-04-05T23:56:27.303Z,1.60
2023-04-05T23:58:54.427Z,1.60
